Time;durP1;ratioP1;P1;durP2;ratioP2;P2;SDS_P1;SDS_P2;PMS_P1;PMS_P2;Temp;Humidity;BMP_temperature;BMP_pressure;BME280_temperature;BME280_humidity;BME280_pressure;Samples;Min_cycle;Max_cycle;Signal;HPM_P1;HPM_P2
2024/01/29 00:03:33;;;;;;;41.67;20.67;;;-4.50;99.90;;;;;;8391656;28;20232;-60
2024/01/29 00:07:34;;;;;;;42.40;21.87;;;-4.60;99.90;;;;;;8386267;28;20184;-61
2024/01/29 00:11:34;;;;;;;41.30;21.60;;;-4.60;99.90;;;;;;8387253;28;20303;-61
2024/01/29 00:15:35;;;;;;;39.23;20.13;;;-4.60;99.90;;;;;;8386399;28;20254;-62
2024/01/29 00:19:36;;;;;;;38.27;18.20;;;-4.50;99.90;;;;;;8392432;28;20215;-61
2024/01/29 00:23:37;;;;;;;38.53;18.67;;;-4.60;99.90;;;;;;8391634;28;21194;-60
2024/01/29 00:27:37;;;;;;;52.23;27.30;;;-4.60;99.90;;;;;;8393443;28;20172;-61
2024/01/29 00:31:38;;;;;;;53.77;24.73;;;-4.50;99.90;;;;;;8393623;28;20270;-61
2024/01/29 00:35:40;;;;;;;47.77;23.13;;;-4.40;99.90;;;;;;8396529;28;20196;-61
2024/01/29 00:39:40;;;;;;;45.30;23.10;;;-4.40;99.90;;;;;;8389959;28;20255;-61
2024/01/29 00:43:41;;;;;;;43.87;19.77;;;-4.50;99.90;;;;;;8394301;28;20219;-62
2024/01/29 00:47:42;;;;;;;37.17;18.37;;;-4.50;99.90;;;;;;8391601;28;20857;-62
2024/01/29 00:51:43;;;;;;;38.80;19.40;;;-4.60;99.90;;;;;;8391034;28;20176;-62
2024/01/29 00:55:45;;;;;;;35.20;18.30;;;-4.60;99.90;;;;;;8394122;28;20189;-62
2024/01/29 00:59:46;;;;;;;35.30;16.93;;;-4.70;99.90;;;;;;8388887;28;20259;-62
2024/01/29 01:03:47;;;;;;;37.93;18.57;;;-4.80;99.90;;;;;;8390242;28;20538;-62
2024/01/29 01:07:48;;;;;;;29.83;15.50;;;-4.90;99.90;;;;;;8389683;28;20188;-62
2024/01/29 01:11:48;;;;;;;31.33;17.03;;;-5.00;99.90;;;;;;8391971;28;20207;-62
2024/01/29 01:15:49;;;;;;;33.23;16.63;;;-5.00;99.90;;;;;;8393520;28;20195;-61
2024/01/29 01:19:51;;;;;;;34.50;15.80;;;-5.00;99.90;;;;;;8393595;28;20189;-61
2024/01/29 01:23:51;;;;;;;35.13;17.63;;;-5.10;99.90;;;;;;8391780;28;20207;-60
2024/01/29 01:27:53;;;;;;;31.47;16.63;;;-5.20;99.90;;;;;;8391436;28;20574;-62
2024/01/29 01:31:54;;;;;;;32.33;16.50;;;-5.10;99.90;;;;;;8391981;28;20177;-61
2024/01/29 01:35:55;;;;;;;52.87;25.80;;;-5.10;99.90;;;;;;8388137;28;20205;-61
2024/01/29 01:39:56;;;;;;;50.20;24.73;;;-5.10;99.90;;;;;;8389166;28;20187;-61
2024/01/29 01:43:56;;;;;;;46.50;21.77;;;-4.80;99.90;;;;;;8390443;28;20484;-62
2024/01/29 01:47:57;;;;;;;36.90;18.57;;;-4.70;99.90;;;;;;8391327;28;20192;-62
2024/01/29 01:51:59;;;;;;;34.00;15.93;;;-4.80;99.90;;;;;;8388029;28;20187;-60
2024/01/29 01:56:00;;;;;;;30.80;16.73;;;-5.00;99.90;;;;;;8395981;28;20187;-61
2024/01/29 02:00:02;;;;;;;33.27;15.97;;;-5.20;99.90;;;;;;8390826;28;20211;-61
2024/01/29 02:04:03;;;;;;;33.10;16.10;;;-5.30;99.90;;;;;;8390501;28;20212;-61
2024/01/29 02:08:05;;;;;;;39.87;19.37;;;-5.40;99.90;;;;;;8388175;28;20262;-60
2024/01/29 02:12:07;;;;;;;44.30;19.57;;;-5.40;99.90;;;;;;8390251;28;20553;-60
2024/01/29 02:16:08;;;;;;;36.00;18.53;;;-5.40;99.90;;;;;;8395744;28;20187;-61
2024/01/29 02:20:09;;;;;;;39.40;19.10;;;-5.40;99.90;;;;;;8389035;28;20189;-62
2024/01/29 02:24:10;;;;;;;37.77;17.23;;;-5.40;99.90;;;;;;8388907;28;20204;-62
2024/01/29 02:28:11;;;;;;;41.87;17.67;;;-5.40;99.90;;;;;;8389222;28;20195;-60
2024/01/29 02:32:12;;;;;;;34.30;17.43;;;-5.50;99.90;;;;;;8391735;28;20511;-62
2024/01/29 02:36:12;;;;;;;31.50;16.47;;;-5.50;99.90;;;;;;8388917;28;20202;-62
2024/01/29 02:40:13;;;;;;;39.00;17.37;;;-5.50;99.90;;;;;;8389505;28;20192;-61
2024/01/29 02:44:14;;;;;;;32.67;16.50;;;-5.50;99.90;;;;;;8386024;28;20216;-62
2024/01/29 02:48:15;;;;;;;38.43;16.73;;;-5.50;99.90;;;;;;8387930;28;20192;-61
2024/01/29 02:52:16;;;;;;;39.07;17.53;;;-5.50;99.90;;;;;;8390568;28;20398;-63
2024/01/29 02:56:16;;;;;;;36.10;17.77;;;-5.50;99.90;;;;;;8387440;28;20195;-62
2024/01/29 03:00:17;;;;;;;33.60;16.50;;;-5.50;99.90;;;;;;8385637;28;20207;-60
2024/01/29 03:04:18;;;;;;;30.80;16.90;;;-5.50;99.90;;;;;;8389241;28;20220;-62
2024/01/29 03:08:19;;;;;;;30.23;15.70;;;-5.60;99.90;;;;;;8388572;28;20179;-62
2024/01/29 03:12:20;;;;;;;29.17;15.67;;;-5.60;99.90;;;;;;8389873;28;20176;-62
2024/01/29 03:16:21;;;;;;;38.57;17.30;;;-5.60;99.90;;;;;;8390128;28;20246;-62
2024/01/29 03:20:21;;;;;;;37.87;18.03;;;-5.60;99.90;;;;;;8396156;28;20313;-62
2024/01/29 03:24:22;;;;;;;39.17;20.07;;;-5.60;99.90;;;;;;8387782;28;20212;-62
2024/01/29 03:28:23;;;;;;;41.07;21.13;;;-5.30;99.90;;;;;;8388475;28;20455;-62
2024/01/29 03:32:23;;;;;;;43.43;19.87;;;-5.20;99.90;;;;;;8396446;28;20176;-61
2024/01/29 03:36:24;;;;;;;48.50;23.23;;;-5.10;99.90;;;;;;8388917;28;20200;-62
2024/01/29 03:40:25;;;;;;;50.47;27.17;;;-4.90;99.90;;;;;;8386268;28;20188;-62
2024/01/29 03:44:25;;;;;;;52.17;25.20;;;-4.80;99.90;;;;;;8388117;28;20269;-62
2024/01/29 03:48:26;;;;;;;52.63;23.17;;;-4.70;99.90;;;;;;8387731;28;20185;-62
2024/01/29 03:52:27;;;;;;;37.07;19.83;;;-4.70;99.90;;;;;;8395786;28;20193;-62
2024/01/29 03:56:28;;;;;;;35.60;17.63;;;-4.70;99.90;;;;;;8398080;28;20263;-63
2024/01/29 04:00:30;;;;;;;40.10;20.83;;;-4.90;99.90;;;;;;8398180;28;20201;-62
2024/01/29 04:04:31;;;;;;;33.37;19.50;;;-5.00;99.90;;;;;;8396814;28;20229;-62
2024/01/29 04:08:32;;;;;;;39.23;18.30;;;-5.00;99.90;;;;;;8390519;28;20277;-63
2024/01/29 04:12:33;;;;;;;33.63;17.97;;;-5.00;99.90;;;;;;8398514;28;20172;-62
2024/01/29 04:16:33;;;;;;;33.40;17.03;;;-5.10;99.90;;;;;;8399078;28;20176;-62
2024/01/29 04:20:34;;;;;;;41.53;18.47;;;-5.20;99.90;;;;;;8390653;28;20215;-63
2024/01/29 04:24:35;;;;;;;37.90;18.00;;;-5.30;99.90;;;;;;8394295;28;20208;-62
2024/01/29 04:28:35;;;;;;;34.40;18.07;;;-5.30;99.90;;;;;;8391421;28;20249;-62
2024/01/29 04:32:36;;;;;;;35.70;18.93;;;-5.30;99.90;;;;;;8396229;28;20177;-63
2024/01/29 04:36:37;;;;;;;48.33;21.10;;;-5.30;99.90;;;;;;8394478;28;20233;-62
2024/01/29 04:40:40;;;;;;;78.17;31.13;;;-5.40;99.90;;;;;;8390993;28;20730;-63
2024/01/29 04:44:41;;;;;;;87.73;40.07;;;-5.50;99.90;;;;;;8395805;28;20214;-63
2024/01/29 04:48:42;;;;;;;58.20;29.57;;;-5.50;99.90;;;;;;8393901;28;20183;-64
2024/01/29 04:52:43;;;;;;;45.97;21.57;;;-5.60;99.90;;;;;;8396805;28;20205;-63
2024/01/29 04:56:44;;;;;;;64.93;31.33;;;-5.60;99.90;;;;;;8398368;28;20184;-63
2024/01/29 05:00:44;;;;;;;72.77;32.73;;;-5.50;99.90;;;;;;8394353;28;20252;-62
2024/01/29 05:04:45;;;;;;;59.07;26.57;;;-5.50;99.90;;;;;;8394361;28;20226;-63
2024/01/29 05:08:46;;;;;;;55.10;23.70;;;-5.50;99.90;;;;;;8393023;28;20184;-63
2024/01/29 05:12:47;;;;;;;48.47;23.90;;;-5.60;99.90;;;;;;8389953;28;20195;-63
2024/01/29 05:16:48;;;;;;;42.97;21.80;;;-5.70;99.90;;;;;;8392945;28;20182;-63
2024/01/29 05:20:49;;;;;;;50.47;24.70;;;-5.80;99.90;;;;;;8390874;28;20182;-63
2024/01/29 05:24:49;;;;;;;56.97;26.30;;;-5.80;99.90;;;;;;8392229;28;20261;-64
2024/01/29 05:28:50;;;;;;;49.20;23.50;;;-5.90;99.90;;;;;;8387975;28;20180;-63
2024/01/29 05:32:51;;;;;;;120.77;40.00;;;-5.90;99.90;;;;;;8398569;28;20180;-63
2024/01/29 05:36:51;;;;;;;125.67;39.07;;;-5.90;99.90;;;;;;8390569;28;20238;-63
2024/01/29 05:40:52;;;;;;;95.33;34.33;;;-6.00;99.90;;;;;;8389975;28;20180;-63
2024/01/29 05:44:53;;;;;;;84.10;35.07;;;-6.00;99.90;;;;;;8386951;28;20265;-63
2024/01/29 05:48:54;;;;;;;125.00;39.47;;;-6.00;99.90;;;;;;8389510;28;20497;-64
2024/01/29 05:52:54;;;;;;;81.80;32.10;;;-6.10;99.90;;;;;;8388830;28;20188;-64
2024/01/29 05:56:56;;;;;;;75.17;36.57;;;-6.00;99.90;;;;;;8389315;28;20289;-65
2024/01/29 06:00:59;;;;;;;108.47;49.63;;;-6.00;99.90;;;;;;8390678;28;20216;-64
2024/01/29 06:05:00;;;;;;;89.73;40.30;;;-6.00;99.90;;;;;;8387025;28;20213;-64
2024/01/29 06:09:01;;;;;;;85.43;33.77;;;-6.00;99.90;;;;;;8389187;28;20190;-65
2024/01/29 06:13:02;;;;;;;261.77;79.50;;;-6.10;99.90;;;;;;8396891;28;20198;-65
2024/01/29 06:17:02;;;;;;;214.63;72.77;;;-6.10;99.90;;;;;;8393089;28;20195;-65
2024/01/29 06:21:04;;;;;;;196.80;66.57;;;-6.10;99.90;;;;;;8392493;28;20225;-65
2024/01/29 06:25:05;;;;;;;202.00;69.87;;;-6.00;99.90;;;;;;8391300;28;20210;-65
2024/01/29 06:29:06;;;;;;;95.70;40.37;;;-6.00;99.90;;;;;;8389138;28;20181;-66
2024/01/29 06:33:07;;;;;;;81.73;34.00;;;-6.00;99.90;;;;;;8390318;28;20272;-65
2024/01/29 06:37:07;;;;;;;124.77;47.90;;;-6.00;99.90;;;;;;8397544;28;20195;-65
2024/01/29 06:41:08;;;;;;;115.80;44.97;;;-6.10;99.90;;;;;;8398479;28;20511;-62
2024/01/29 06:45:09;;;;;;;88.10;40.73;;;-6.10;99.90;;;;;;8401376;28;20225;-63
2024/01/29 06:49:30;;;;;;;72.47;35.63;;;-6.10;99.90;;;;;;8389249;28;20175;-64
2024/01/29 06:53:33;;;;;;;43.40;21.33;;;-6.10;99.90;;;;;;8403979;27;20282;-65
2024/01/29 06:57:34;;;;;;;37.80;21.67;;;-5.80;99.90;;;;;;8387656;28;20248;-67
2024/01/29 07:01:34;;;;;;;65.07;32.40;;;-5.60;99.90;;;;;;8389707;28;20207;-67
2024/01/29 07:05:35;;;;;;;59.90;27.00;;;-5.50;99.90;;;;;;8385527;28;20477;-67
2024/01/29 07:09:36;;;;;;;58.77;26.20;;;-5.40;99.90;;;;;;8387869;28;20195;-67
2024/01/29 07:13:37;;;;;;;56.00;26.53;;;-5.40;99.90;;;;;;8390418;28;20275;-67
2024/01/29 07:17:37;;;;;;;44.80;23.53;;;-5.40;99.90;;;;;;8388711;28;20184;-67
2024/01/29 07:21:38;;;;;;;62.80;29.50;;;-5.40;99.90;;;;;;8390192;28;20683;-67
2024/01/29 07:25:39;;;;;;;87.13;40.60;;;-5.30;99.90;;;;;;8392251;28;20215;-67
2024/01/29 07:29:40;;;;;;;83.47;38.93;;;-5.10;99.90;;;;;;8397362;28;20191;-67
2024/01/29 07:33:40;;;;;;;72.00;35.37;;;-4.90;99.90;;;;;;8395786;28;20220;-67
2024/01/29 07:37:41;;;;;;;82.20;39.93;;;-4.80;99.90;;;;;;8394504;28;20183;-64
2024/01/29 07:41:42;;;;;;;64.97;34.47;;;-4.70;99.90;;;;;;8395484;28;20184;-64
2024/01/29 07:45:44;;;;;;;64.50;33.57;;;-4.50;99.90;;;;;;8392544;28;20204;-64
2024/01/29 07:49:44;;;;;;;59.27;30.93;;;-4.30;99.90;;;;;;8393657;28;20191;-65
2024/01/29 07:53:45;;;;;;;74.20;35.10;;;-4.00;99.90;;;;;;8399840;28;20189;-65
2024/01/29 07:57:46;;;;;;;76.23;37.50;;;-3.70;99.90;;;;;;8396320;28;20193;-66
2024/01/29 08:01:46;;;;;;;72.23;39.33;;;-3.30;99.90;;;;;;8394341;28;20209;-66
2024/01/29 08:05:47;;;;;;;68.77;37.47;;;-3.00;99.90;;;;;;8395310;28;20213;-66
2024/01/29 08:09:48;;;;;;;72.93;39.73;;;-2.70;99.90;;;;;;8391683;28;20177;-66
2024/01/29 08:13:49;;;;;;;70.93;38.97;;;-2.40;99.90;;;;;;8394338;28;20194;-66
2024/01/29 08:17:49;;;;;;;73.83;42.33;;;-2.10;99.90;;;;;;8394011;28;20186;-65
2024/01/29 08:21:50;;;;;;;84.03;45.47;;;-1.80;99.90;;;;;;8393817;28;20186;-66
2024/01/29 08:25:51;;;;;;;62.03;36.30;;;-1.60;99.90;;;;;;8401663;28;20210;-66
2024/01/29 08:29:52;;;;;;;70.67;38.83;;;-1.40;99.90;;;;;;8403898;28;20297;-65
2024/01/29 08:33:53;;;;;;;58.40;34.40;;;-1.20;99.90;;;;;;8403594;28;20199;-66
2024/01/29 08:37:53;;;;;;;54.20;29.13;;;-1.00;99.90;;;;;;8406498;28;20188;-66
2024/01/29 08:41:54;;;;;;;46.37;27.43;;;-0.80;99.90;;;;;;8412901;28;20190;-65
2024/01/29 08:45:55;;;;;;;44.73;27.30;;;-0.60;99.90;;;;;;8408666;28;20201;-65
2024/01/29 08:49:56;;;;;;;46.83;29.27;;;-0.50;99.90;;;;;;8401853;28;20514;-66
2024/01/29 08:53:56;;;;;;;47.33;26.67;;;-0.30;99.90;;;;;;8400924;28;20192;-65
2024/01/29 08:57:57;;;;;;;47.63;30.70;;;-0.20;99.90;;;;;;8402972;28;20181;-64
2024/01/29 09:01:59;;;;;;;57.00;33.17;;;0.00;99.90;;;;;;8406528;28;20246;-65
2024/01/29 09:05:59;;;;;;;51.87;30.23;;;0.20;99.90;;;;;;8398900;28;20223;-65
2024/01/29 09:10:00;;;;;;;48.77;30.73;;;0.40;99.90;;;;;;8402492;28;20245;-66
2024/01/29 09:14:01;;;;;;;63.17;34.80;;;0.70;99.90;;;;;;8414613;28;20196;-65
2024/01/29 09:18:02;;;;;;;52.27;32.13;;;0.90;99.90;;;;;;8408002;28;20184;-65
2024/01/29 09:22:03;;;;;;;51.43;29.43;;;1.10;99.90;;;;;;8410496;28;20282;-65
2024/01/29 09:26:05;;;;;;;38.10;23.73;;;1.30;99.90;;;;;;8408991;28;20227;-65
2024/01/29 09:30:06;;;;;;;49.93;28.90;;;1.50;99.90;;;;;;8409541;28;20181;-65
2024/01/29 09:34:08;;;;;;;48.70;30.20;;;1.80;99.90;;;;;;8412998;28;20343;-65
2024/01/29 09:38:08;;;;;;;47.27;27.13;;;2.00;99.90;;;;;;8408616;28;20185;-65
2024/01/29 09:42:16;;;;;;;47.73;30.03;;;2.30;99.90;;;;;;8410047;28;20185;-62
2024/01/29 09:46:18;;;;;;;43.37;26.97;;;2.50;99.90;;;;;;8389832;28;20242;-62
2024/01/29 09:50:19;;;;;;;37.27;21.73;;;2.70;99.90;;;;;;8388678;28;20297;-62
2024/01/29 09:54:20;;;;;;;36.03;22.70;;;2.90;99.90;;;;;;8386881;28;20284;-62
2024/01/29 09:58:21;;;;;;;34.63;23.17;;;3.10;99.90;;;;;;8396858;28;20217;-63
2024/01/29 10:02:22;;;;;;;29.17;20.63;;;3.30;99.90;;;;;;8390060;28;20258;-62
2024/01/29 10:06:23;;;;;;;32.50;19.60;;;3.50;99.90;;;;;;8395953;28;20217;-63
2024/01/29 10:10:27;;;;;;;28.57;19.43;;;3.80;99.90;;;;;;8398368;28;20492;-63
2024/01/29 10:14:28;;;;;;;33.20;19.63;;;4.10;99.90;;;;;;8396575;28;20185;-63
2024/01/29 10:18:30;;;;;;;70.20;42.47;;;4.40;99.90;;;;;;8386809;28;20204;-63
2024/01/29 10:22:30;;;;;;;69.57;43.23;;;4.40;99.90;;;;;;8387850;28;20193;-63
2024/01/29 10:26:31;;;;;;;58.53;35.10;;;4.30;99.90;;;;;;8390058;28;20509;-63
2024/01/29 10:30:33;;;;;;;52.73;34.33;;;4.50;99.90;;;;;;8393080;28;20184;-63
2024/01/29 10:34:33;;;;;;;22.30;14.93;;;4.70;99.90;;;;;;8388883;28;20197;-63
2024/01/29 10:38:38;;;;;;;21.40;13.00;;;5.00;99.90;;;;;;8391619;28;20242;-63
2024/01/29 10:42:43;;;;;;;26.27;16.03;;;5.30;99.90;;;;;;8388575;28;20209;-63
2024/01/29 10:46:47;;;;;;;18.40;12.17;;;5.50;99.90;;;;;;8391203;28;20208;-63
2024/01/29 10:50:48;;;;;;;19.17;10.90;;;5.70;1.00;;;;;;8386688;28;20217;-63
2024/01/29 10:54:57;;;;;;;16.83;10.37;;;5.90;99.90;;;;;;8400381;28;20199;-64
2024/01/29 10:58:59;;;;;;;16.03;9.50;;;6.10;99.90;;;;;;8403855;28;20213;-64
2024/01/29 11:03:03;;;;;;;15.20;8.80;;;6.30;58.00;;;;;;8409518;28;20261;-65
2024/01/29 11:07:20;;;;;;;20.67;10.63;;;6.50;20.90;;;;;;8397643;28;20212;-65
2024/01/29 11:11:23;;;;;;;15.93;9.80;;;6.60;1.00;;;;;;8403136;28;20181;-65
2024/01/29 11:15:24;;;;;;;15.80;10.47;;;6.80;1.00;;;;;;8395554;28;20204;-65
2024/01/29 11:19:26;;;;;;;20.80;12.07;;;6.90;1.00;;;;;;8406010;28;20195;-65
2024/01/29 11:23:28;;;;;;;20.40;11.57;;;7.10;1.00;;;;;;8408063;28;20310;-65
2024/01/29 11:27:31;;;;;;;17.10;11.07;;;7.30;1.00;;;;;;8402070;28;20185;-65
2024/01/29 11:31:42;;;;;;;19.80;11.53;;;7.40;1.00;;;;;;8401446;28;20189;-64
2024/01/29 11:35:45;;;;;;;23.33;14.73;;;7.60;1.00;;;;;;8413085;28;20193;-64
2024/01/29 11:39:46;;;;;;;21.00;12.17;;;7.70;1.00;;;;;;8399523;28;20311;-65
2024/01/29 11:43:47;;;;;;;19.03;11.90;;;7.90;1.00;;;;;;8403150;28;20342;-66
2024/01/29 11:47:48;;;;;;;17.37;10.83;;;8.00;1.00;;;;;;8408338;28;20208;-65
2024/01/29 11:51:48;;;;;;;21.53;11.77;;;8.10;1.00;;;;;;8403969;28;20189;-63
2024/01/29 11:55:49;;;;;;;18.47;10.67;;;8.10;1.00;;;;;;8392957;28;20194;-64
2024/01/29 11:59:50;;;;;;;17.00;10.37;;;8.20;1.00;;;;;;8404128;28;20272;-65
2024/01/29 12:03:51;;;;;;;14.70;9.83;;;8.20;1.00;;;;;;8399963;28;20218;-65
2024/01/29 12:07:52;;;;;;;16.93;9.17;;;8.30;1.00;;;;;;8396023;28;20185;-64
2024/01/29 12:11:53;;;;;;;20.97;9.93;;;8.40;1.00;;;;;;8402427;28;20176;-65
2024/01/29 12:15:59;;;;;;;15.13;9.90;;;8.50;1.00;;;;;;8408526;28;20213;-64
2024/01/29 12:20:00;;;;;;;16.43;10.30;;;8.50;1.00;;;;;;8405782;28;20179;-65
2024/01/29 12:24:00;;;;;;;16.67;9.67;;;8.60;1.00;;;;;;8411004;28;20216;-65
2024/01/29 12:28:03;;;;;;;13.33;8.53;;;8.60;1.00;;;;;;8405018;28;20243;-65
2024/01/29 12:32:17;;;;;;;14.40;9.00;;;8.70;1.00;;;;;;8401251;28;20188;-64
2024/01/29 12:36:19;;;;;;;15.13;8.60;;;8.80;1.00;;;;;;8400612;28;20549;-64
2024/01/29 12:40:23;;;;;;;15.67;8.67;;;8.80;1.00;;;;;;8392800;28;20230;-64
2024/01/29 12:44:25;;;;;;;15.73;9.50;;;8.90;1.00;;;;;;8395276;28;20279;-63
2024/01/29 12:48:27;;;;;;;16.13;9.90;;;8.90;1.00;;;;;;8397701;28;20183;-63
2024/01/29 12:52:30;;;;;;;17.07;9.93;;;8.90;1.00;;;;;;8393016;28;20559;-64
2024/01/29 12:56:31;;;;;;;15.50;9.47;;;9.00;1.00;;;;;;8391908;28;20202;-63
2024/01/29 13:00:32;;;;;;;15.80;9.37;;;9.00;1.00;;;;;;8395412;28;20207;-63
2024/01/29 13:04:33;;;;;;;18.57;9.40;;;9.10;1.00;;;;;;8393048;28;20656;-64
2024/01/29 13:08:33;;;;;;;17.87;9.67;;;9.10;1.00;;;;;;8394519;28;20186;-64
2024/01/29 13:12:34;;;;;;;12.73;7.73;;;9.10;1.00;;;;;;8394703;28;20401;-64
2024/01/29 13:16:37;;;;;;;12.47;7.47;;;9.20;1.00;;;;;;8390163;28;20187;-63
2024/01/29 13:20:39;;;;;;;15.37;8.30;;;9.10;1.00;;;;;;8387070;28;20204;-63
2024/01/29 13:24:39;;;;;;;13.97;8.47;;;9.10;1.00;;;;;;8388015;28;20219;-64
2024/01/29 13:28:41;;;;;;;16.50;8.70;;;9.10;1.00;;;;;;8390919;28;20269;-63
2024/01/29 13:32:42;;;;;;;13.37;8.53;;;9.10;1.00;;;;;;8393576;28;20175;-65
2024/01/29 13:36:42;;;;;;;14.60;9.00;;;9.10;1.00;;;;;;8420990;27;20242;-65
2024/01/29 13:40:43;;;;;;;15.93;9.00;;;9.10;1.00;;;;;;8406731;28;20175;-65
2024/01/29 13:44:44;;;;;;;15.37;8.50;;;9.10;1.00;;;;;;8401417;28;20207;-65
2024/01/29 13:48:45;;;;;;;15.83;9.03;;;9.10;1.00;;;;;;8399265;28;20215;-65
2024/01/29 13:52:47;;;;;;;19.47;10.53;;;9.10;1.00;;;;;;8404956;28;20218;-65
2024/01/29 13:56:48;;;;;;;15.67;10.37;;;9.10;1.00;;;;;;8399148;28;20200;-65
2024/01/29 14:00:49;;;;;;;19.60;11.07;;;9.00;1.00;;;;;;8398866;28;20211;-65
2024/01/29 14:04:49;;;;;;;16.23;10.13;;;9.00;1.00;;;;;;8400043;28;20223;-65
2024/01/29 14:08:50;;;;;;;20.77;10.50;;;9.00;1.00;;;;;;8406329;28;20184;-65
2024/01/29 14:12:51;;;;;;;15.33;9.93;;;9.00;1.00;;;;;;8399802;28;20194;-65
2024/01/29 14:16:52;;;;;;;19.60;10.60;;;8.90;1.00;;;;;;8400483;28;20285;-65
2024/01/29 14:20:53;;;;;;;13.83;9.17;;;8.90;1.00;;;;;;8395410;28;20252;-65
2024/01/29 14:24:56;;;;;;;14.67;8.43;;;8.80;1.00;;;;;;8402482;28;20246;-65
2024/01/29 14:28:56;;;;;;;14.70;8.70;;;8.70;1.00;;;;;;8398327;28;20334;-65
2024/01/29 14:32:57;;;;;;;15.07;8.50;;;8.60;1.00;;;;;;8396745;28;20184;-65
2024/01/29 14:36:58;;;;;;;16.03;9.10;;;8.40;1.00;;;;;;8402084;28;20193;-65
2024/01/29 14:40:59;;;;;;;13.33;8.20;;;8.20;1.00;;;;;;8394767;28;20177;-64
2024/01/29 14:45:00;;;;;;;14.27;9.13;;;8.00;1.00;;;;;;8397943;28;20252;-65
2024/01/29 14:49:01;;;;;;;12.20;8.40;;;7.80;1.00;;;;;;8398727;28;20218;-65
2024/01/29 14:53:03;;;;;;;13.07;8.97;;;7.60;1.00;;;;;;8395469;28;20179;-63
2024/01/29 14:57:04;;;;;;;13.47;8.57;;;7.40;1.00;;;;;;8390460;28;20174;-64
2024/01/29 15:01:05;;;;;;;14.27;8.83;;;7.10;1.00;;;;;;8390640;28;20196;-63
2024/01/29 15:05:10;;;;;;;14.10;8.93;;;6.80;1.00;;;;;;8395353;28;20255;-65
2024/01/29 15:09:10;;;;;;;14.77;9.00;;;6.50;1.00;;;;;;8397149;28;20235;-65
2024/01/29 15:13:11;;;;;;;15.50;9.53;;;6.10;1.00;;;;;;8401576;28;20198;-65
2024/01/29 15:17:13;;;;;;;14.63;8.67;;;5.80;1.00;;;;;;8400075;28;20183;-64
2024/01/29 15:21:14;;;;;;;14.57;8.07;;;5.40;1.00;;;;;;8394009;28;20169;-64
2024/01/29 15:25:14;;;;;;;17.50;9.63;;;5.10;1.00;;;;;;8399392;28;20205;-65
2024/01/29 15:29:15;;;;;;;15.53;8.67;;;4.70;1.00;;;;;;8393936;28;20181;-65
2024/01/29 15:33:16;;;;;;;15.00;8.73;;;4.50;1.00;;;;;;8397991;28;20239;-65
2024/01/29 15:37:22;;;;;;;16.60;9.37;;;4.20;1.00;;;;;;8398997;28;20192;-65
2024/01/29 15:41:23;;;;;;;17.67;9.53;;;3.90;1.00;;;;;;8397340;28;20375;-66
2024/01/29 15:45:23;;;;;;;14.40;9.10;;;3.60;1.00;;;;;;8393618;28;20200;-65
2024/01/29 15:49:26;;;;;;;15.70;9.40;;;3.30;1.00;;;;;;8404257;28;20219;-64
2024/01/29 15:53:27;;;;;;;15.30;8.77;;;3.10;1.00;;;;;;8403274;28;20181;-64
2024/01/29 15:57:28;;;;;;;16.13;9.80;;;2.90;1.00;;;;;;8408978;28;20241;-64
2024/01/29 16:01:29;;;;;;;18.13;9.43;;;2.70;1.00;;;;;;8399862;28;20511;-65
2024/01/29 16:05:29;;;;;;;22.13;12.33;;;2.50;1.00;;;;;;8398072;28;20242;-62
2024/01/29 16:09:31;;;;;;;20.83;11.23;;;2.40;2.10;;;;;;8390068;28;20184;-61
2024/01/29 16:13:31;;;;;;;20.20;9.73;;;2.20;14.90;;;;;;8395732;28;20243;-60
2024/01/29 16:17:32;;;;;;;16.23;9.33;;;2.00;24.90;;;;;;8398343;28;20347;-59
2024/01/29 16:21:33;;;;;;;17.13;9.60;;;1.80;37.20;;;;;;8397534;28;20185;-59
2024/01/29 16:25:37;;;;;;;18.00;9.90;;;1.70;58.30;;;;;;8391935;28;20205;-61
2024/01/29 16:29:37;;;;;;;16.93;8.70;;;1.50;88.50;;;;;;8393168;28;20230;-61
2024/01/29 16:33:38;;;;;;;16.57;9.53;;;1.30;99.90;;;;;;8394891;28;20184;-60
2024/01/29 16:37:39;;;;;;;16.77;9.87;;;1.20;99.90;;;;;;8393587;28;20184;-61
2024/01/29 16:41:40;;;;;;;16.73;9.23;;;1.00;99.90;;;;;;8401249;28;20341;-58
2024/01/29 16:45:40;;;;;;;17.10;9.93;;;0.90;99.90;;;;;;8400849;28;20201;-59
2024/01/29 16:49:42;;;;;;;15.70;9.20;;;0.80;99.90;;;;;;8390980;28;20180;-58
2024/01/29 16:53:45;;;;;;;20.33;8.87;;;0.70;99.90;;;;;;8395056;28;20181;-59
2024/01/29 16:57:46;;;;;;;15.30;9.13;;;0.60;99.90;;;;;;8401563;28;20301;-58
2024/01/29 17:01:46;;;;;;;16.30;8.80;;;0.50;99.90;;;;;;8390725;28;20201;-59
2024/01/29 17:05:47;;;;;;;17.83;9.47;;;0.40;99.90;;;;;;8396694;28;20285;-58
2024/01/29 17:09:48;;;;;;;15.83;9.37;;;0.30;99.90;;;;;;8392896;28;20189;-60
2024/01/29 17:13:49;;;;;;;14.43;8.70;;;0.20;99.90;;;;;;8397363;28;20238;-60
2024/01/29 17:17:50;;;;;;;16.67;8.73;;;0.10;99.90;;;;;;8392920;28;20181;-59
2024/01/29 17:21:51;;;;;;;15.33;8.83;;;0.10;99.90;;;;;;8396347;28;20263;-60
2024/01/29 17:25:58;;;;;;;20.47;8.83;;;0.00;99.90;;;;;;8396888;28;20207;-59
2024/01/29 17:29:58;;;;;;;14.80;8.30;;;0.00;99.90;;;;;;8393815;28;20174;-59
2024/01/29 17:33:59;;;;;;;15.97;8.97;;;-0.10;99.90;;;;;;8399456;28;20192;-60
2024/01/29 17:38:00;;;;;;;16.70;9.07;;;-0.20;99.90;;;;;;8396472;28;20188;-59
2024/01/29 17:42:03;;;;;;;15.30;8.87;;;-0.20;99.90;;;;;;8402990;28;20196;-59
2024/01/29 17:46:04;;;;;;;19.20;9.50;;;-0.30;99.90;;;;;;8394323;28;20413;-59
2024/01/29 17:50:08;;;;;;;16.67;9.23;;;-0.40;99.90;;;;;;8391814;28;20181;-59
2024/01/29 17:54:08;;;;;;;15.50;8.17;;;-0.50;1.00;;;;;;8400765;28;20191;-60
2024/01/29 17:58:09;;;;;;;13.80;7.53;;;-0.50;1.00;;;;;;8400133;28;20188;-59
2024/01/29 18:02:10;;;;;;;17.40;9.03;;;-0.60;1.00;;;;;;8397492;28;20213;-58
2024/01/29 18:06:11;;;;;;;14.80;8.33;;;-0.70;1.00;;;;;;8392338;28;20265;-58
2024/01/29 18:10:12;;;;;;;14.37;7.73;;;-0.70;1.00;;;;;;8392893;28;20197;-59
2024/01/29 18:14:13;;;;;;;19.57;8.73;;;-0.80;1.00;;;;;;8394029;28;20286;-60
2024/01/29 18:18:14;;;;;;;18.27;8.47;;;-0.80;99.90;;;;;;8391786;28;20216;-59
2024/01/29 18:22:15;;;;;;;15.50;8.07;;;-0.90;79.40;;;;;;8394336;28;20408;-59
2024/01/29 18:26:15;;;;;;;16.13;7.87;;;-0.90;45.70;;;;;;8397474;28;20238;-60
2024/01/29 18:30:17;;;;;;;14.73;8.13;;;-1.00;99.30;;;;;;8398700;28;20212;-60
2024/01/29 18:34:18;;;;;;;13.40;8.27;;;-1.10;99.90;;;;;;8398931;28;20196;-58
2024/01/29 18:38:18;;;;;;;15.17;7.80;;;-1.10;99.90;;;;;;8395050;28;20184;-59
2024/01/29 18:42:22;;;;;;;13.80;6.47;;;-1.10;99.90;;;;;;8396114;28;20218;-59
2024/01/29 18:46:23;;;;;;;14.83;7.40;;;-1.20;99.90;;;;;;8411813;28;20300;-61
2024/01/29 18:50:24;;;;;;;36.77;14.40;;;-1.30;1.00;;;;;;8394051;28;20176;-61
2024/01/29 18:54:25;;;;;;;47.00;21.30;;;-1.30;78.70;;;;;;8398221;28;20181;-61
2024/01/29 18:58:28;;;;;;;49.40;20.80;;;-1.30;74.20;;;;;;8395023;28;20205;-60
2024/01/29 19:02:29;;;;;;;35.90;16.20;;;-1.30;1.00;;;;;;8392129;28;20275;-61
2024/01/29 19:06:30;;;;;;;23.10;10.77;;;-1.40;1.00;;;;;;8389888;28;20292;-59
2024/01/29 19:10:31;;;;;;;20.80;9.73;;;-1.40;1.00;;;;;;8392601;28;20184;-60
2024/01/29 19:14:33;;;;;;;15.43;7.87;;;-1.50;1.00;;;;;;8392671;28;20200;-60
2024/01/29 19:18:34;;;;;;;14.80;7.73;;;-1.50;1.00;;;;;;8390942;28;20185;-60
2024/01/29 19:22:34;;;;;;;19.90;10.17;;;-1.60;1.00;;;;;;8392377;28;20223;-62
2024/01/29 19:26:36;;;;;;;15.90;9.10;;;-1.60;1.00;;;;;;8393705;28;20232;-61
2024/01/29 19:30:38;;;;;;;21.40;10.77;;;-1.60;18.90;;;;;;8388092;28;20191;-61
2024/01/29 19:34:39;;;;;;;16.13;10.57;;;-1.70;99.90;;;;;;8394888;28;20199;-61
2024/01/29 19:38:39;;;;;;;18.97;10.17;;;-1.70;99.90;;;;;;8388907;28;20191;-61
2024/01/29 19:42:40;;;;;;;17.30;9.43;;;-1.70;99.90;;;;;;8396977;28;20286;-60
2024/01/29 19:46:43;;;;;;;22.00;9.23;;;-1.70;99.90;;;;;;8389547;28;20211;-60
2024/01/29 19:50:44;;;;;;;300.73;136.57;;;-1.70;1.00;;;;;;8389256;28;20182;-58
2024/01/29 19:54:45;;;;;;;145.60;60.57;;;-1.70;1.00;;;;;;8388963;28;20263;-62
2024/01/29 19:58:45;;;;;;;34.13;17.70;;;-1.80;1.00;;;;;;8391703;28;20234;-62
2024/01/29 20:02:46;;;;;;;18.97;11.03;;;-1.80;1.00;;;;;;8389143;28;20186;-62
2024/01/29 20:06:47;;;;;;;23.73;11.00;;;-1.80;99.90;;;;;;8394352;28;20210;-62
2024/01/29 20:10:48;;;;;;;50.10;24.33;;;-2.00;64.80;;;;;;8391291;28;20209;-62
2024/01/29 20:14:49;;;;;;;40.37;20.23;;;-2.00;1.00;;;;;;8391772;28;20182;-62
2024/01/29 20:18:50;;;;;;;28.20;15.23;;;-2.10;1.00;;;;;;8392594;28;20178;-62
2024/01/29 20:22:51;;;;;;;26.47;14.23;;;-2.20;99.90;;;;;;8391708;28;20227;-62
2024/01/29 20:26:51;;;;;;;28.63;13.70;;;-2.30;99.90;;;;;;8384088;28;20217;-62
2024/01/29 20:30:52;;;;;;;22.97;12.00;;;-2.30;1.00;;;;;;8388306;28;20191;-62
2024/01/29 20:34:53;;;;;;;35.77;17.53;;;-2.40;1.00;;;;;;8393393;28;20223;-63
2024/01/29 20:38:54;;;;;;;22.93;12.60;;;-2.40;1.00;;;;;;8396124;28;20331;-62
2024/01/29 20:42:59;;;;;;;19.70;10.73;;;-2.40;99.90;;;;;;8393592;28;20196;-62